createdAt,value
2023-05-09T00:00:28.465Z,100734.72
2023-05-09T00:02:56.988Z,100728.94
2023-05-09T00:05:25.353Z,100727.25
2023-05-09T00:07:53.887Z,100732.56
2023-05-09T00:10:22.472Z,100730.59
2023-05-09T00:12:50.720Z,100725.03
2023-05-09T00:15:19.591Z,100733.97
2023-05-09T00:17:48.216Z,100724.03
2023-05-09T00:20:16.389Z,100727.00
2023-05-09T00:22:45.141Z,100726.75
2023-05-09T00:25:13.982Z,100717.22
2023-05-09T00:27:42.279Z,100708.69
2023-05-09T00:30:10.886Z,100716.84
2023-05-09T00:32:41.358Z,100724.28
2023-05-09T00:35:10.378Z,100727.00
2023-05-09T00:37:38.813Z,100716.38
2023-05-09T00:40:09.271Z,100716.59
2023-05-09T00:42:37.597Z,100706.88
2023-05-09T00:45:07.139Z,100702.53
2023-05-09T00:47:35.854Z,100706.31
2023-05-09T00:50:05.264Z,100700.41
2023-05-09T00:52:34.091Z,100706.19
2023-05-09T00:55:03.149Z,100709.34
2023-05-09T00:57:31.366Z,100699.94
2023-05-09T01:00:00.871Z,100699.16
2023-05-09T01:02:29.398Z,100705.16
2023-05-09T01:04:58.546Z,100698.66
2023-05-09T01:07:36.453Z,100707.34
2023-05-09T01:10:21.461Z,100715.88
2023-05-09T01:13:05.071Z,100715.13
2023-05-09T01:15:41.408Z,100707.13
2023-05-09T01:18:18.955Z,100715.03
2023-05-09T01:21:08.845Z,100708.09
2023-05-09T01:23:49.539Z,100705.69
2023-05-09T01:26:17.873Z,100707.13
2023-05-09T01:29:13.603Z,100712.53
2023-05-09T01:31:45.268Z,100713.59
2023-05-09T01:34:17.120Z,100708.97
2023-05-09T01:36:48.851Z,100704.59
2023-05-09T01:39:18.676Z,100699.16
2023-05-09T01:41:49.663Z,100702.78
2023-05-09T01:44:18.607Z,100696.28
2023-05-09T01:46:48.159Z,100697.78
2023-05-09T01:49:17.901Z,100698.59
2023-05-09T01:51:48.408Z,100691.03
2023-05-09T01:54:18.756Z,100696.53
2023-05-09T01:56:48.571Z,100688.88
2023-05-09T01:59:18.441Z,100696.75
2023-05-09T02:01:47.417Z,100703.00
2023-05-09T02:04:18.034Z,100700.28
2023-05-09T02:06:51.402Z,100697.41
2023-05-09T02:09:20.937Z,100692.16
2023-05-09T02:11:49.244Z,100698.50
2023-05-09T02:14:17.857Z,100694.87
2023-05-09T02:16:46.296Z,100696.75
2023-05-09T02:19:14.755Z,100687.84
2023-05-09T02:21:43.316Z,100685.66
2023-05-09T02:24:12.359Z,100678.53
2023-05-09T02:26:41.332Z,100681.97
2023-05-09T02:29:11.287Z,100685.59
2023-05-09T02:31:41.190Z,100687.72
2023-05-09T02:34:10.935Z,100692.53
2023-05-09T02:36:39.989Z,100686.28
2023-05-09T02:39:08.245Z,100683.31
2023-05-09T02:41:36.829Z,100681.44
2023-05-09T02:44:05.191Z,100684.75
2023-05-09T02:46:33.737Z,100680.13
2023-05-09T02:49:02.073Z,100680.53
2023-05-09T02:51:30.379Z,100666.00
2023-05-09T02:53:58.852Z,100672.47
2023-05-09T02:56:27.560Z,100669.56
2023-05-09T02:58:55.641Z,100674.97
2023-05-09T03:01:24.221Z,100671.84
2023-05-09T03:03:53.056Z,100676.63
2023-05-09T03:06:21.576Z,100669.28
2023-05-09T03:08:49.879Z,100671.16
2023-05-09T03:11:18.906Z,100670.81
2023-05-09T03:13:48.022Z,100669.19
2023-05-09T03:16:18.597Z,100672.47
2023-05-09T03:18:47.165Z,100674.47
2023-05-09T03:21:15.915Z,100671.06
2023-05-09T03:23:44.204Z,100661.94
2023-05-09T03:26:12.549Z,100662.16
2023-05-09T03:28:41.068Z,100657.16
2023-05-09T03:31:09.581Z,100666.59
2023-05-09T03:33:38.012Z,100664.72
2023-05-09T03:36:06.678Z,100660.87
2023-05-09T03:38:34.971Z,100660.78
2023-05-09T03:41:04.099Z,100664.19
2023-05-09T03:43:32.617Z,100676.94
2023-05-09T03:46:00.808Z,100667.97
2023-05-09T03:48:29.357Z,100682.44
2023-05-09T03:50:58.433Z,100683.59
2023-05-09T03:53:27.487Z,100679.41
2023-05-09T03:55:56.040Z,100676.53
2023-05-09T03:58:24.516Z,100674.16
2023-05-09T04:00:53.688Z,100678.94
2023-05-09T04:03:22.303Z,100683.69
2023-05-09T04:05:50.948Z,100688.78
2023-05-09T04:08:19.897Z,100680.16
2023-05-09T04:10:49.866Z,100673.22
2023-05-09T04:13:18.272Z,100682.13
2023-05-09T04:15:46.978Z,100685.13
2023-05-09T04:18:15.682Z,100685.97
2023-05-09T04:20:44.048Z,100676.31
2023-05-09T04:23:13.028Z,100679.94
2023-05-09T04:25:41.637Z,100689.22
2023-05-09T04:28:09.850Z,100681.34
2023-05-09T04:30:38.571Z,100686.62
2023-05-09T04:33:07.049Z,100687.72
2023-05-09T04:35:35.777Z,100683.28
2023-05-09T04:38:04.934Z,100687.59
2023-05-09T04:40:33.598Z,100688.97
2023-05-09T04:43:01.960Z,100682.09
2023-05-09T04:45:30.406Z,100685.09
2023-05-09T04:47:59.473Z,100685.81
2023-05-09T04:50:27.867Z,100682.00
2023-05-09T04:52:56.228Z,100684.63
2023-05-09T04:55:24.778Z,100683.16
2023-05-09T04:57:52.996Z,100679.53
2023-05-09T05:00:21.921Z,100678.50
2023-05-09T05:02:50.733Z,100690.19
2023-05-09T05:05:24.535Z,100687.09
2023-05-09T05:07:54.701Z,100691.59
2023-05-09T05:10:23.339Z,100689.84
2023-05-09T05:12:51.615Z,100691.94
2023-05-09T05:15:20.589Z,100697.63
2023-05-09T05:17:48.902Z,100695.13
2023-05-09T05:20:18.461Z,100691.72
2023-05-09T05:22:47.620Z,100688.72
2023-05-09T05:25:17.862Z,100690.50
2023-05-09T05:27:46.844Z,100687.03
2023-05-09T05:30:17.996Z,100690.72
2023-05-09T05:32:47.207Z,100684.66
2023-05-09T05:35:17.001Z,100683.34
2023-05-09T05:37:46.523Z,100688.37
2023-05-09T05:40:17.150Z,100672.28
2023-05-09T05:42:46.745Z,100678.97
2023-05-09T05:45:15.397Z,100686.38
2023-05-09T05:47:45.936Z,100682.97
2023-05-09T05:50:14.717Z,100684.78
2023-05-09T05:52:43.250Z,100680.78
2023-05-09T05:55:12.743Z,100687.13
2023-05-09T05:57:42.169Z,100689.34
2023-05-09T06:00:11.859Z,100683.38
2023-05-09T06:02:45.187Z,100675.88
2023-05-09T06:05:15.282Z,100678.22
2023-05-09T06:07:44.388Z,100678.56
2023-05-09T06:10:12.720Z,100679.28
2023-05-09T06:12:41.242Z,100683.00
2023-05-09T06:15:09.813Z,100687.56
2023-05-09T06:17:38.886Z,100688.28
2023-05-09T06:20:07.848Z,100689.97
2023-05-09T06:22:36.262Z,100693.69
2023-05-09T06:25:04.769Z,100694.63
2023-05-09T06:27:33.252Z,100691.91
2023-05-09T06:30:02.805Z,100692.06
2023-05-09T06:32:37.024Z,100687.84
2023-05-09T06:35:05.567Z,100695.00
2023-05-09T06:37:35.050Z,100690.91
2023-05-09T06:40:03.749Z,100689.41
2023-05-09T06:42:33.762Z,100687.91
2023-05-09T06:45:01.880Z,100693.97
2023-05-09T06:47:30.920Z,100687.69
2023-05-09T06:49:59.144Z,100694.37
2023-05-09T06:52:27.277Z,100687.69
2023-05-09T06:54:55.839Z,100680.38
2023-05-09T06:57:24.141Z,100683.84
2023-05-09T06:59:52.407Z,100675.56
2023-05-09T07:02:21.356Z,100673.50
2023-05-09T07:04:49.710Z,100666.44
2023-05-09T07:07:17.800Z,100664.78
2023-05-09T07:09:46.500Z,100661.16
2023-05-09T07:12:14.505Z,100668.59
2023-05-09T07:14:42.701Z,100659.38
2023-05-09T07:17:21.949Z,100660.31
2023-05-09T07:19:51.914Z,100658.81
2023-05-09T07:22:20.622Z,100655.38
2023-05-09T07:24:48.853Z,100652.81
2023-05-09T07:27:16.987Z,100647.13
2023-05-09T07:29:45.924Z,100646.47
2023-05-09T07:32:14.074Z,100647.69
2023-05-09T07:34:42.443Z,100650.75
2023-05-09T07:37:11.708Z,100651.31
2023-05-09T07:39:41.231Z,100636.53
2023-05-09T07:42:09.357Z,100634.50
2023-05-09T07:44:38.133Z,100626.00
2023-05-09T07:47:06.228Z,100622.03
2023-05-09T07:49:34.538Z,100620.56
2023-05-09T07:52:03.158Z,100626.41
2023-05-09T07:54:31.645Z,100620.13
2023-05-09T07:56:59.692Z,100608.12
2023-05-09T07:59:28.423Z,100616.19
2023-05-09T08:01:56.533Z,100619.38
2023-05-09T08:04:25.029Z,100617.28
2023-05-09T08:06:54.148Z,100611.09
2023-05-09T08:09:22.270Z,100602.78
2023-05-09T08:11:50.747Z,100599.03
2023-05-09T08:14:19.086Z,100594.53
2023-05-09T08:16:47.223Z,100608.19
2023-05-09T08:19:15.846Z,100615.94
2023-05-09T08:21:44.295Z,100601.19
2023-05-09T08:24:12.275Z,100597.34
2023-05-09T08:26:40.680Z,100597.97
2023-05-09T08:29:09.080Z,100604.31
2023-05-09T08:31:37.264Z,100593.63
2023-05-09T08:34:05.679Z,100603.44
2023-05-09T08:36:34.278Z,100590.44
2023-05-09T08:39:02.446Z,100585.56
2023-05-09T08:41:36.299Z,100603.06
2023-05-09T08:44:04.970Z,100590.59
2023-05-09T08:46:39.472Z,100589.31
2023-05-09T08:49:08.335Z,100578.66
2023-05-09T08:51:38.101Z,100580.88
2023-05-09T08:54:06.514Z,100584.16
2023-05-09T08:56:35.291Z,100576.63
2023-05-09T08:59:05.698Z,100574.38
2023-05-09T09:01:36.156Z,100572.03
2023-05-09T09:04:08.906Z,100564.06
2023-05-09T09:06:39.060Z,100567.44
2023-05-09T09:09:11.529Z,100564.12
2023-05-09T09:11:41.130Z,100560.28
2023-05-09T09:14:16.148Z,100557.00
2023-05-09T09:16:49.157Z,100548.78
2023-05-09T09:19:19.255Z,100557.19
2023-05-09T09:21:49.920Z,100551.12
2023-05-09T09:24:22.700Z,100545.03
2023-05-09T09:26:52.033Z,100534.81
2023-05-09T09:29:23.007Z,100543.19
2023-05-09T09:31:55.360Z,100549.47
2023-05-09T09:34:24.310Z,100549.72
2023-05-09T09:36:52.485Z,100552.66
2023-05-09T09:39:22.116Z,100557.66
2023-05-09T09:41:50.840Z,100551.38
2023-05-09T09:44:20.885Z,100555.03
2023-05-09T09:46:54.081Z,100558.44
2023-05-09T09:49:24.814Z,100552.06
2023-05-09T09:51:55.751Z,100549.09
2023-05-09T09:54:28.546Z,100544.84
2023-05-09T09:56:57.135Z,100547.03
2023-05-09T09:59:27.381Z,100544.34
2023-05-09T10:02:07.082Z,100546.44
2023-05-09T10:04:39.160Z,100537.25
2023-05-09T10:07:14.331Z,100536.47
2023-05-09T10:09:43.988Z,100535.03
2023-05-09T10:12:14.770Z,100533.19
2023-05-09T10:14:43.910Z,100524.22
2023-05-09T10:17:14.816Z,100522.44
2023-05-09T10:19:47.872Z,100525.81
2023-05-09T10:22:19.284Z,100520.56
2023-05-09T10:24:56.950Z,100520.31
2023-05-09T10:27:28.726Z,100506.94
2023-05-09T10:30:05.046Z,100515.53
2023-05-09T10:32:39.568Z,100521.50
2023-05-09T10:35:11.160Z,100512.53
2023-05-09T10:37:40.177Z,100522.03
2023-05-09T10:40:09.458Z,100527.47
2023-05-09T10:42:37.933Z,100511.44
2023-05-09T10:45:07.463Z,100515.78
2023-05-09T10:47:36.406Z,100510.72
2023-05-09T10:50:05.784Z,100513.50
2023-05-09T10:52:34.341Z,100506.00
2023-05-09T10:55:05.117Z,100501.53
2023-05-09T10:57:39.128Z,100507.41
2023-05-09T11:00:08.774Z,100511.13
2023-05-09T11:02:39.246Z,100511.50
2023-05-09T11:05:16.316Z,100515.78
2023-05-09T11:07:45.172Z,100514.50
2023-05-09T11:10:18.170Z,100501.50
2023-05-09T11:13:00.354Z,100502.81
2023-05-09T11:15:29.116Z,100503.56
2023-05-09T11:18:08.270Z,100500.91
2023-05-09T11:20:43.860Z,100499.34
2023-05-09T11:23:12.812Z,100494.03
2023-05-09T11:25:42.143Z,100492.34
2023-05-09T11:28:11.840Z,100489.59
2023-05-09T11:30:42.902Z,100482.69
2023-05-09T11:33:27.294Z,100470.97
2023-05-09T11:36:14.781Z,100467.84
2023-05-09T11:38:43.057Z,100471.13
2023-05-09T11:41:11.584Z,100472.69
2023-05-09T11:43:40.410Z,100460.72
2023-05-09T11:46:08.820Z,100459.50
2023-05-09T11:48:42.344Z,100468.00
2023-05-09T11:51:18.669Z,100472.25
2023-05-09T11:53:51.634Z,100458.75
2023-05-09T11:56:20.601Z,100462.03
2023-05-09T11:58:51.401Z,100462.69
2023-05-09T12:01:20.128Z,100462.66
2023-05-09T12:03:49.478Z,100461.59
2023-05-09T12:06:18.978Z,100459.16
2023-05-09T12:08:48.149Z,100449.00
2023-05-09T12:11:17.179Z,100444.06
2023-05-09T12:13:46.985Z,100446.87
2023-05-09T12:16:17.421Z,100443.38
2023-05-09T12:18:51.374Z,100438.97
2023-05-09T12:21:20.798Z,100451.50
2023-05-09T12:23:51.745Z,100431.22
2023-05-09T12:26:23.063Z,100435.69
2023-05-09T12:28:52.089Z,100430.53
2023-05-09T12:31:21.045Z,100431.97
2023-05-09T12:33:49.644Z,100426.34
2023-05-09T12:36:18.868Z,100421.31
2023-05-09T12:38:56.048Z,100424.50
2023-05-09T12:43:56.084Z,100423.22
2023-05-09T12:46:24.900Z,100415.06
2023-05-09T12:48:53.816Z,100416.13
2023-05-09T12:51:22.669Z,100411.50
2023-05-09T12:53:51.551Z,100412.31
2023-05-09T12:56:23.455Z,100412.00
2023-05-09T12:58:56.132Z,100406.50
2023-05-09T13:01:28.805Z,100399.75
2023-05-09T13:04:03.975Z,100398.84
2023-05-09T13:06:32.891Z,100389.87
2023-05-09T13:09:02.908Z,100387.53
2023-05-09T13:11:34.303Z,100384.50
2023-05-09T13:14:04.167Z,100378.63
2023-05-09T13:16:32.944Z,100378.34
2023-05-09T13:19:01.966Z,100380.88
2023-05-09T13:21:30.333Z,100376.25
2023-05-09T13:23:58.722Z,100381.16
2023-05-09T13:26:27.657Z,100371.53
2023-05-09T13:28:56.410Z,100372.59
2023-05-09T13:31:24.842Z,100373.97
2023-05-09T13:33:53.762Z,100375.94
2023-05-09T13:36:22.507Z,100379.19
2023-05-09T13:38:51.213Z,100369.53
2023-05-09T13:41:23.936Z,100369.41
2023-05-09T13:43:52.438Z,100369.91
2023-05-09T13:46:20.875Z,100357.22
2023-05-09T13:48:49.101Z,100361.44
2023-05-09T13:51:17.833Z,100363.00
2023-05-09T13:53:46.150Z,100356.47
2023-05-09T13:56:14.331Z,100353.19
2023-05-09T13:58:42.659Z,100356.34
2023-05-09T14:01:11.433Z,100356.97
2023-05-09T14:03:39.991Z,100344.88
2023-05-09T14:06:09.409Z,100341.94
2023-05-09T14:08:37.804Z,100340.41
2023-05-09T14:11:07.499Z,100336.03
2023-05-09T14:13:36.775Z,100339.63
2023-05-09T14:16:05.292Z,100330.44
2023-05-09T14:18:34.047Z,100336.69
2023-05-09T14:21:02.131Z,100334.81
2023-05-09T14:23:30.548Z,100331.72
2023-05-09T14:25:59.139Z,100332.47
2023-05-09T14:28:27.435Z,100324.75
2023-05-09T14:30:55.728Z,100325.28
2023-05-09T14:33:24.447Z,100321.56
2023-05-09T14:35:52.661Z,100318.56
2023-05-09T14:38:21.286Z,100321.28
2023-05-09T14:40:49.702Z,100317.38
2023-05-09T14:43:17.690Z,100316.19
2023-05-09T14:45:46.041Z,100315.09
2023-05-09T14:48:16.078Z,100311.78
2023-05-09T14:50:44.457Z,100304.50
2023-05-09T14:53:13.302Z,100307.31
2023-05-09T14:55:42.045Z,100308.84
2023-05-09T14:58:10.243Z,100305.59
2023-05-09T15:00:38.712Z,100298.41
2023-05-09T15:03:07.609Z,100293.44
2023-05-09T15:05:36.043Z,100298.59
2023-05-09T15:08:04.472Z,100288.06
2023-05-09T15:10:33.740Z,100294.87
2023-05-09T15:13:05.584Z,100288.13
2023-05-09T15:15:34.857Z,100282.62
2023-05-09T15:18:03.358Z,100282.53
2023-05-09T15:20:31.608Z,100279.34
2023-05-09T15:23:04.041Z,100275.06
2023-05-09T15:25:33.822Z,100280.91
2023-05-09T15:28:03.036Z,100272.00
2023-05-09T15:30:31.363Z,100279.91
2023-05-09T15:33:00.066Z,100274.06
2023-05-09T15:35:28.480Z,100271.63
2023-05-09T15:37:56.599Z,100276.00
2023-05-09T15:40:24.957Z,100267.34
2023-05-09T15:42:53.781Z,100267.09
2023-05-09T15:45:21.959Z,100260.47
2023-05-09T15:47:50.097Z,100260.28
2023-05-09T15:50:18.783Z,100263.28
2023-05-09T15:52:47.240Z,100252.12
2023-05-09T15:55:15.345Z,100258.03
2023-05-09T15:57:45.300Z,100252.03
2023-05-09T16:00:16.549Z,100252.12
2023-05-09T16:02:45.020Z,100243.50
2023-05-09T16:05:13.644Z,100241.16
2023-05-09T16:07:47.204Z,100236.59
2023-05-09T16:10:16.552Z,100240.31
2023-05-09T16:12:45.184Z,100241.84
2023-05-09T16:15:13.562Z,100243.50
2023-05-09T16:17:43.504Z,100242.72
2023-05-09T16:20:14.206Z,100240.69
2023-05-09T16:22:43.933Z,100235.88
2023-05-09T16:25:12.083Z,100249.41
2023-05-09T16:27:40.217Z,100241.38
2023-05-09T16:30:09.835Z,100240.91
2023-05-09T16:32:38.355Z,100242.19
2023-05-09T16:35:07.688Z,100238.09
2023-05-09T16:37:36.291Z,100239.06
2023-05-09T16:40:04.891Z,100231.00
2023-05-09T16:42:33.128Z,100227.03
2023-05-09T16:45:01.960Z,100227.56
2023-05-09T16:47:31.019Z,100222.66
2023-05-09T16:49:59.632Z,100213.09
2023-05-09T16:52:28.240Z,100215.88
2023-05-09T16:54:59.279Z,100214.88
2023-05-09T16:57:27.992Z,100207.66
2023-05-09T16:59:56.364Z,100207.16
2023-05-09T17:02:24.510Z,100204.31
2023-05-09T17:04:53.011Z,100207.00
2023-05-09T17:07:21.335Z,100198.50
2023-05-09T17:09:49.806Z,100211.69
2023-05-09T17:12:18.602Z,100215.47
2023-05-09T17:14:50.092Z,100207.78
2023-05-09T17:17:18.627Z,100210.91
2023-05-09T17:19:47.398Z,100216.53
2023-05-09T17:22:15.862Z,100215.41
2023-05-09T17:24:44.556Z,100209.69
2023-05-09T17:27:12.689Z,100210.19
2023-05-09T17:29:40.947Z,100213.16
2023-05-09T17:32:09.559Z,100215.12
2023-05-09T17:34:38.989Z,100214.19
2023-05-09T17:37:09.052Z,100210.97
2023-05-09T17:39:38.488Z,100211.66
2023-05-09T17:42:14.809Z,100210.66
2023-05-09T17:44:51.333Z,100203.47
2023-05-09T17:47:25.614Z,100207.94
2023-05-09T17:49:59.952Z,100208.12
2023-05-09T17:52:51.388Z,100211.56
2023-05-09T17:55:29.067Z,100203.72
2023-05-09T17:57:57.603Z,100211.16
2023-05-09T18:00:26.086Z,100211.50
2023-05-09T18:02:54.187Z,100219.03
2023-05-09T18:05:23.742Z,100209.38
2023-05-09T18:07:53.500Z,100212.00
2023-05-09T18:10:21.683Z,100210.88
2023-05-09T18:12:50.229Z,100214.00
2023-05-09T18:15:18.549Z,100209.91
2023-05-09T18:17:48.558Z,100213.19
2023-05-09T18:20:17.874Z,100208.78
2023-05-09T18:22:47.105Z,100223.22
2023-05-09T18:25:15.439Z,100228.09
2023-05-09T18:27:43.953Z,100219.91
2023-05-09T18:30:12.568Z,100219.09
2023-05-09T18:32:41.782Z,100223.03
2023-05-09T18:35:10.459Z,100223.22
2023-05-09T18:37:38.973Z,100225.50
2023-05-09T18:40:10.732Z,100222.06
2023-05-09T18:42:39.356Z,100227.94
2023-05-09T18:45:13.105Z,100233.84
2023-05-09T18:47:42.616Z,100237.09
2023-05-09T18:50:13.867Z,100227.91
2023-05-09T18:52:44.740Z,100228.88
2023-05-09T18:55:14.846Z,100243.28
2023-05-09T18:57:43.380Z,100246.69
2023-05-09T19:00:12.705Z,100250.09
2023-05-09T19:02:41.162Z,100238.00
2023-05-09T19:05:09.654Z,100245.16
2023-05-09T19:07:39.173Z,100247.91
2023-05-09T19:10:10.167Z,100245.44
2023-05-09T19:12:38.910Z,100249.66
2023-05-09T19:15:07.934Z,100250.63
2023-05-09T19:17:36.522Z,100249.12
2023-05-09T19:20:06.127Z,100254.69
2023-05-09T19:22:35.562Z,100248.94
2023-05-09T19:25:03.761Z,100244.97
2023-05-09T19:27:32.236Z,100249.56
2023-05-09T19:30:00.816Z,100248.25
2023-05-09T19:32:30.411Z,100245.25
2023-05-09T19:34:59.145Z,100246.53
2023-05-09T19:37:27.875Z,100250.13
2023-05-09T19:39:56.287Z,100245.88
2023-05-09T19:42:25.037Z,100246.34
2023-05-09T19:44:53.418Z,100257.47
2023-05-09T19:47:22.296Z,100253.16
2023-05-09T19:49:51.379Z,100251.84
2023-05-09T19:52:20.232Z,100255.81
2023-05-09T19:54:49.467Z,100247.66
2023-05-09T19:57:18.674Z,100257.75
2023-05-09T19:59:47.522Z,100248.22
2023-05-09T20:02:15.668Z,100245.75
2023-05-09T20:04:49.713Z,100246.44
2023-05-09T20:07:18.041Z,100235.81
2023-05-09T20:09:47.744Z,100245.91
2023-05-09T20:12:16.135Z,100243.38
2023-05-09T20:14:44.678Z,100236.66
2023-05-09T20:17:13.133Z,100233.41
2023-05-09T20:19:42.019Z,100241.53
2023-05-09T20:22:10.406Z,100233.03
2023-05-09T20:24:41.393Z,100237.88
2023-05-09T20:27:10.222Z,100236.09
2023-05-09T20:29:38.792Z,100230.66
2023-05-09T20:32:07.082Z,100235.88
2023-05-09T20:34:35.682Z,100227.00
2023-05-09T20:37:04.268Z,100220.44
2023-05-09T20:39:32.895Z,100219.59
2023-05-09T20:42:02.670Z,100223.31
2023-05-09T20:44:31.027Z,100218.56
2023-05-09T20:46:59.396Z,100225.34
2023-05-09T20:49:27.900Z,100220.78
2023-05-09T20:51:56.257Z,100216.25
2023-05-09T20:54:24.553Z,100217.88
2023-05-09T20:56:52.915Z,100223.84
2023-05-09T20:59:21.346Z,100222.50
2023-05-09T21:01:49.594Z,100223.16
2023-05-09T21:04:18.227Z,100217.13
2023-05-09T21:06:46.630Z,100219.34
2023-05-09T21:09:14.832Z,100221.78
2023-05-09T21:11:43.061Z,100231.88
2023-05-09T21:14:11.690Z,100219.56
2023-05-09T21:16:40.188Z,100228.50
2023-05-09T21:19:09.148Z,100218.91
2023-05-09T21:21:37.420Z,100216.13
2023-05-09T21:24:09.177Z,100222.00
2023-05-09T21:26:37.847Z,100217.63
2023-05-09T21:29:06.656Z,100211.06
2023-05-09T21:31:35.339Z,100210.13
2023-05-09T21:34:09.863Z,100198.59
2023-05-09T21:36:38.946Z,100221.28
2023-05-09T21:39:11.769Z,100212.59
2023-05-09T21:41:41.920Z,100207.69
2023-05-09T21:44:12.060Z,100211.50
2023-05-09T21:46:41.326Z,100205.53
2023-05-09T21:49:09.722Z,100208.78
2023-05-09T21:51:37.992Z,100208.22
2023-05-09T21:54:06.390Z,100207.69
2023-05-09T21:56:34.870Z,100209.03
2023-05-09T21:59:03.320Z,100210.13
2023-05-09T22:01:31.527Z,100205.16
2023-05-09T22:04:00.239Z,100204.62
2023-05-09T22:06:28.434Z,100201.75
2023-05-09T22:08:56.617Z,100209.41
2023-05-09T22:11:25.221Z,100199.22
2023-05-09T22:13:53.464Z,100204.34
2023-05-09T22:16:22.743Z,100209.66
2023-05-09T22:18:51.513Z,100209.66
2023-05-09T22:21:19.519Z,100204.19
2023-05-09T22:23:47.979Z,100188.53
2023-05-09T22:26:16.394Z,100192.78
2023-05-09T22:28:44.638Z,100183.31
2023-05-09T22:31:12.748Z,100195.81
2023-05-09T22:33:41.222Z,100195.31
2023-05-09T22:36:10.784Z,100199.13
2023-05-09T22:38:38.995Z,100192.91
2023-05-09T22:41:07.634Z,100191.00
2023-05-09T22:43:39.319Z,100191.81
2023-05-09T22:46:08.846Z,100181.97
2023-05-09T22:48:37.090Z,100195.31
2023-05-09T22:51:05.331Z,100189.13
2023-05-09T22:53:33.884Z,100183.75
2023-05-09T22:56:01.963Z,100172.66
2023-05-09T22:58:30.189Z,100176.91
2023-05-09T23:00:59.117Z,100165.84
2023-05-09T23:03:27.473Z,100180.56
2023-05-09T23:05:55.774Z,100179.06
2023-05-09T23:08:24.470Z,100168.78
2023-05-09T23:10:52.579Z,100174.94
2023-05-09T23:13:21.334Z,100168.09
2023-05-09T23:15:49.883Z,100174.56
2023-05-09T23:18:18.122Z,100162.06
2023-05-09T23:20:46.447Z,100167.81
2023-05-09T23:23:15.133Z,100162.13
2023-05-09T23:25:44.418Z,100165.03
2023-05-09T23:28:12.605Z,100170.91
2023-05-09T23:30:41.492Z,100172.03
2023-05-09T23:33:09.583Z,100165.47
2023-05-09T23:35:37.758Z,100150.81
2023-05-09T23:38:06.370Z,100158.87
2023-05-09T23:40:34.609Z,100163.25
2023-05-09T23:43:02.784Z,100157.06
2023-05-09T23:45:31.633Z,100158.34
2023-05-09T23:47:59.754Z,100156.38
2023-05-09T23:50:27.919Z,100150.97
2023-05-09T23:52:56.547Z,100146.53
2023-05-09T23:55:24.773Z,100143.47
2023-05-09T23:57:52.819Z,100139.75
